Time;durP1;ratioP1;P1;durP2;ratioP2;P2;SDS_P1;SDS_P2;PMS_P1;PMS_P2;Temp;Humidity;BMP_temperature;BMP_pressure;BME280_temperature;BME280_humidity;BME280_pressure;Samples;Min_cycle;Max_cycle;Signal;HPM_P1;HPM_P2
2022/11/10 00:01:56;;;;;;;30.33;23.40;;;;;;;6.27;100.00;93441.84;5090116;28;20203;-71
2022/11/10 00:04:22;;;;;;;32.00;23.70;;;;;;;6.19;100.00;93429.25;5090647;28;20188;-72
2022/11/10 00:06:48;;;;;;;30.83;24.23;;;;;;;6.27;100.00;93452.22;5108575;28;20203;-71
2022/11/10 00:09:14;;;;;;;34.03;24.60;;;;;;;6.28;100.00;93440.81;5109578;28;20237;-71
2022/11/10 00:11:40;;;;;;;36.00;24.20;;;;;;;5.93;100.00;93398.72;5108576;28;20217;-71
2022/11/10 00:16:59;;;;;;;34.03;24.87;;;;;;;6.36;100.00;93453.44;5108429;28;20292;-71
2022/11/10 00:19:26;;;;;;;37.90;26.00;;;;;;;6.28;100.00;93443.41;5109794;28;20226;-71
2022/11/10 00:21:51;;;;;;;39.57;24.83;;;;;;;6.35;100.00;93447.44;5109692;28;20209;-71
2022/11/10 00:24:17;;;;;;;35.87;24.40;;;;;;;6.31;100.00;93448.13;5109173;28;20188;-71
2022/11/10 00:26:42;;;;;;;37.83;26.07;;;;;;;6.24;100.00;93450.09;5107294;28;20210;-71
2022/11/10 00:29:08;;;;;;;31.23;22.90;;;;;;;6.23;100.00;93448.50;5108499;28;20208;-71
2022/11/10 00:31:35;;;;;;;31.77;23.00;;;;;;;6.13;100.00;93436.13;5109961;28;20188;-71
2022/11/10 00:34:01;;;;;;;31.20;22.80;;;;;;;6.20;100.00;93438.59;5108208;28;20172;-71
2022/11/10 00:36:26;;;;;;;28.63;21.57;;;;;;;6.08;100.00;93440.47;5108436;28;20253;-72
2022/11/10 00:38:51;;;;;;;28.77;21.80;;;;;;;5.98;100.00;93438.44;5108801;28;20203;-72
2022/11/10 00:41:17;;;;;;;28.67;21.23;;;;;;;5.84;100.00;93423.38;5107991;28;20235;-71
2022/11/10 00:43:42;;;;;;;30.93;21.97;;;;;;;6.05;100.00;93443.50;5109391;28;20192;-70
2022/11/10 00:46:07;;;;;;;35.83;24.40;;;;;;;6.16;100.00;93432.31;5105824;28;20221;-71
2022/11/10 00:48:34;;;;;;;31.47;23.67;;;;;;;6.06;100.00;93438.09;5108403;28;20737;-71
2022/11/10 00:50:59;;;;;;;33.50;24.83;;;;;;;6.02;100.00;93438.78;5104894;28;20216;-71
2022/11/10 00:53:24;;;;;;;32.83;23.80;;;;;;;5.86;100.00;93434.31;5109276;28;20214;-71
2022/11/10 00:55:50;;;;;;;30.30;23.53;;;;;;;5.70;100.00;93398.72;5092327;28;20244;-71
2022/11/10 00:58:15;;;;;;;31.00;23.67;;;;;;;5.91;100.00;93416.28;5087980;28;20256;-71
2022/11/10 01:00:41;;;;;;;26.40;22.10;;;;;;;5.95;100.00;93407.81;5101743;28;20239;-71
2022/11/10 01:03:07;;;;;;;28.03;21.93;;;;;;;6.02;100.00;93431.00;5109514;28;20190;-71
2022/11/10 01:05:36;;;;;;;27.33;21.17;;;;;;;6.25;100.00;93428.31;5106771;28;20225;-71
2022/11/10 01:08:02;;;;;;;31.27;22.83;;;;;;;6.11;100.00;93433.00;5108058;28;20227;-72
2022/11/10 01:10:27;;;;;;;28.23;22.73;;;;;;;6.11;100.00;93437.41;5107207;28;20215;-71
2022/11/10 01:12:53;;;;;;;32.03;22.13;;;;;;;6.02;100.00;93428.41;5105822;28;20211;-71
2022/11/10 01:15:19;;;;;;;29.63;23.27;;;;;;;5.90;100.00;93410.31;5105496;28;20223;-71
2022/11/10 01:17:45;;;;;;;32.60;23.27;;;;;;;6.00;100.00;93414.91;5109022;28;20192;-70
2022/11/10 01:20:10;;;;;;;41.53;24.87;;;;;;;6.02;100.00;93424.00;5106261;28;20234;-71
2022/11/10 01:22:36;;;;;;;31.30;23.73;;;;;;;6.16;100.00;93421.94;5109104;28;20195;-71
2022/11/10 01:25:01;;;;;;;29.53;24.60;;;;;;;6.13;100.00;93423.19;5105903;28;20227;-71
2022/11/10 01:27:26;;;;;;;27.73;22.53;;;;;;;6.02;100.00;93402.50;5108556;28;20188;-71
2022/11/10 01:29:52;;;;;;;31.53;22.73;;;;;;;5.97;100.00;93399.81;5107859;28;20236;-71
2022/11/10 01:32:17;;;;;;;30.77;24.17;;;;;;;6.01;100.00;93401.72;5109183;28;20188;-71
2022/11/10 01:34:43;;;;;;;38.77;24.03;;;;;;;6.06;100.00;93419.94;5105719;28;20247;-71
2022/11/10 01:37:08;;;;;;;28.97;23.40;;;;;;;5.89;100.00;93398.38;5109071;28;20194;-72
2022/11/10 01:39:33;;;;;;;28.30;21.40;;;;;;;5.98;100.00;93416.91;5107144;28;20232;-71
2022/11/10 01:41:59;;;;;;;30.60;22.17;;;;;;;5.88;100.00;93396.78;5109221;28;20180;-72
2022/11/10 01:44:25;;;;;;;27.97;20.60;;;;;;;5.83;100.00;93414.06;5106521;28;20233;-71
2022/11/10 01:46:50;;;;;;;29.77;23.00;;;;;;;5.86;100.00;93411.00;5107153;28;20180;-71
2022/11/10 01:49:21;;;;;;;26.23;21.93;;;;;;;5.91;100.00;93424.84;5104944;28;20212;-71
2022/11/10 01:52:12;;;;;;;30.13;22.67;;;;;;;5.78;100.00;93419.88;5107922;28;20194;-72
2022/11/10 01:54:45;;;;;;;33.00;22.60;;;;;;;5.90;100.00;93422.50;5104731;28;20240;-71
2022/11/10 01:57:12;;;;;;;28.87;21.63;;;;;;;5.74;100.00;93400.66;5106591;28;20207;-71
2022/11/10 01:59:43;;;;;;;26.93;21.93;;;;;;;5.90;100.00;93414.72;5102591;28;20756;-71
2022/11/10 02:02:31;;;;;;;31.50;20.97;;;;;;;5.90;100.00;93418.06;5089375;28;20248;-72
2022/11/10 02:04:58;;;;;;;35.07;22.27;;;;;;;5.83;100.00;93408.88;5096198;28;20235;-70
2022/11/10 02:07:24;;;;;;;29.10;22.37;;;;;;;5.77;100.00;93409.75;5102457;28;20184;-72
2022/11/10 02:09:52;;;;;;;33.40;22.33;;;;;;;5.74;100.00;93415.41;5101695;28;20216;-71
2022/11/10 02:12:35;;;;;;;32.83;23.07;;;;;;;5.69;100.00;93413.50;5099955;28;20184;-72
2022/11/10 02:15:02;;;;;;;29.13;20.20;;;;;;;5.71;100.00;93401.09;5101061;28;20220;-71
2022/11/10 02:17:28;;;;;;;26.03;20.53;;;;;;;5.72;100.00;93407.06;5099464;28;20252;-71
2022/11/10 02:19:58;;;;;;;26.83;21.20;;;;;;;5.91;100.00;93416.28;5104646;28;20216;-71
2022/11/10 02:22:23;;;;;;;25.63;21.73;;;;;;;5.77;100.00;93422.72;5101007;28;20185;-72
2022/11/10 02:24:49;;;;;;;27.13;20.60;;;;;;;5.70;100.00;93406.50;5104204;28;20283;-71
2022/11/10 02:27:14;;;;;;;27.00;21.83;;;;;;;5.73;100.00;93419.00;5100748;28;20203;-71
2022/11/10 02:29:40;;;;;;;32.93;21.63;;;;;;;5.77;100.00;93420.91;5101598;28;20320;-71
2022/11/10 02:32:05;;;;;;;26.07;20.30;;;;;;;5.71;100.00;93426.22;5100629;28;20201;-73
2022/11/10 02:34:30;;;;;;;26.67;20.47;;;;;;;5.68;100.00;93429.28;5096246;28;20243;-72
2022/11/10 02:36:56;;;;;;;28.97;21.43;;;;;;;5.69;100.00;93434.22;5091622;28;20204;-72
2022/11/10 02:39:21;;;;;;;23.00;20.27;;;;;;;5.58;100.00;93426.47;5093253;28;20192;-71
2022/11/10 02:41:46;;;;;;;26.77;21.77;;;;;;;5.73;100.00;93437.13;5111026;28;20188;-71
2022/11/10 02:44:12;;;;;;;24.40;20.60;;;;;;;5.71;100.00;93434.00;5109346;28;20199;-71
2022/11/10 02:46:37;;;;;;;27.53;20.73;;;;;;;5.63;100.00;93434.34;5110452;28;20200;-71
2022/11/10 02:49:03;;;;;;;25.77;19.80;;;;;;;5.32;100.00;93401.06;5110741;28;20215;-71
2022/11/10 02:51:28;;;;;;;25.23;20.43;;;;;;;5.63;100.00;93437.72;5111038;28;20226;-72
2022/11/10 02:53:53;;;;;;;29.37;20.13;;;;;;;5.65;100.00;93442.69;5111606;28;20184;-72
2022/11/10 02:56:19;;;;;;;29.27;20.87;;;;;;;5.60;100.00;93443.38;5110307;28;20219;-71
2022/11/10 02:58:44;;;;;;;24.47;20.87;;;;;;;5.43;100.00;93428.75;5111577;28;20255;-70
2022/11/10 03:01:10;;;;;;;29.03;22.27;;;;;;;5.49;100.00;93444.16;5106488;28;20224;-71
2022/11/10 03:03:35;;;;;;;27.30;21.90;;;;;;;5.34;100.00;93445.63;5111408;28;20188;-71
2022/11/10 03:06:00;;;;;;;34.07;24.07;;;;;;;5.44;100.00;93441.47;5109255;28;20216;-72
2022/11/10 03:08:26;;;;;;;35.20;22.30;;;;;;;5.51;100.00;93439.53;5111088;28;20208;-71
2022/11/10 03:10:53;;;;;;;27.70;21.07;;;;;;;5.46;100.00;93446.41;5110719;28;20267;-71
2022/11/10 03:13:19;;;;;;;28.20;21.27;;;;;;;5.41;100.00;93447.09;5110389;28;20205;-71
2022/11/10 03:15:47;;;;;;;28.33;21.30;;;;;;;5.46;100.00;93434.25;5109766;28;20292;-71
2022/11/10 03:18:12;;;;;;;25.63;19.77;;;;;;;5.43;100.00;93433.91;5111675;28;20212;-72
2022/11/10 03:20:38;;;;;;;27.57;20.67;;;;;;;5.33;100.00;93423.34;5110473;28;20228;-71
2022/11/10 03:23:04;;;;;;;25.23;20.27;;;;;;;5.44;100.00;93448.44;5111362;28;20208;-71
2022/11/10 03:25:29;;;;;;;24.60;19.80;;;;;;;5.42;100.00;93447.84;5110612;28;20232;-71
2022/11/10 03:27:55;;;;;;;25.63;18.87;;;;;;;5.18;100.00;93430.78;5109625;28;20226;-71
2022/11/10 03:30:20;;;;;;;24.20;19.73;;;;;;;5.27;100.00;93445.75;5110639;28;20228;-71
2022/11/10 03:32:45;;;;;;;30.70;19.83;;;;;;;5.21;100.00;93440.69;5110481;28;20184;-71
2022/11/10 03:35:11;;;;;;;25.40;20.53;;;;;;;5.36;100.00;93452.16;5109141;28;20948;-70
2022/11/10 03:37:36;;;;;;;32.93;21.37;;;;;;;5.36;100.00;93446.19;5110941;28;20198;-70
2022/11/10 03:40:01;;;;;;;30.43;20.90;;;;;;;5.45;100.00;93447.44;5109482;28;20220;-70
2022/11/10 03:42:27;;;;;;;32.40;22.43;;;;;;;5.31;100.00;93431.31;5110357;28;20188;-71
2022/11/10 03:44:52;;;;;;;27.67;21.30;;;;;;;5.39;100.00;93448.31;5110292;28;20295;-71
2022/11/10 03:47:17;;;;;;;30.90;22.30;;;;;;;5.38;100.00;93446.75;5109995;28;20188;-72
2022/11/10 03:49:43;;;;;;;28.70;21.60;;;;;;;5.37;100.00;93458.13;5109526;28;20224;-71
2022/11/10 03:52:08;;;;;;;29.07;22.97;;;;;;;5.38;100.00;93457.91;5110448;28;20203;-70
2022/11/10 03:54:34;;;;;;;28.77;21.73;;;;;;;5.27;100.00;93460.47;5109903;28;20231;-71
2022/11/10 03:56:59;;;;;;;32.83;22.80;;;;;;;5.17;100.00;93436.97;5109563;28;20196;-71
2022/11/10 03:59:24;;;;;;;28.80;21.57;;;;;;;5.14;100.00;93433.03;5107885;28;20326;-71
2022/11/10 04:01:50;;;;;;;26.30;20.77;;;;;;;5.46;100.00;93464.53;5109167;28;20199;-70
2022/11/10 04:09:43;;;;;;;34.67;21.50;;;;;;;5.42;100.00;93465.97;5107080;28;20225;-71
2022/11/10 04:17:36;;;;;;;27.97;20.03;;;;;;;5.24;100.00;93466.91;5108901;28;20194;-71
2022/11/10 04:20:02;;;;;;;27.13;20.87;;;;;;;4.72;100.00;93410.84;5108755;28;20239;-71
2022/11/10 04:25:11;;;;;;;27.70;21.90;;;;;;;5.16;100.00;93467.25;5108624;28;20219;-71
2022/11/10 04:27:37;;;;;;;29.27;20.40;;;;;;;5.16;100.00;93469.03;5109113;28;20176;-71
2022/11/10 04:30:03;;;;;;;27.63;20.47;;;;;;;4.81;100.00;93415.47;5108442;28;20235;-71
2022/11/10 04:32:29;;;;;;;26.73;20.20;;;;;;;5.08;100.00;93461.59;5108929;28;20174;-71
2022/11/10 04:34:54;;;;;;;28.93;20.60;;;;;;;5.08;100.00;93474.53;5107029;28;20219;-71
2022/11/10 04:37:19;;;;;;;25.43;20.57;;;;;;;5.12;100.00;93483.44;5108832;28;20192;-71
2022/11/10 04:39:45;;;;;;;24.97;19.63;;;;;;;5.02;100.00;93467.66;5107493;28;20211;-70
2022/11/10 04:42:10;;;;;;;27.07;21.13;;;;;;;5.05;100.00;93473.19;5107561;28;20200;-69
2022/11/10 04:44:35;;;;;;;26.70;19.93;;;;;;;4.89;100.00;93469.47;5106190;28;20242;-69
2022/11/10 04:47:01;;;;;;;31.93;21.50;;;;;;;5.07;100.00;93460.03;5107800;28;20237;-69
2022/11/10 04:49:26;;;;;;;27.80;21.27;;;;;;;5.02;100.00;93470.25;5107589;28;20216;-70
2022/11/10 04:51:51;;;;;;;28.83;20.57;;;;;;;5.03;100.00;93469.25;5108998;28;20209;-69
2022/11/10 04:54:17;;;;;;;30.90;23.10;;;;;;;4.98;100.00;93477.66;5107755;28;20182;-67
2022/11/10 04:56:42;;;;;;;29.40;23.20;;;;;;;5.08;100.00;93477.13;5108644;28;20188;-69
2022/11/10 04:59:07;;;;;;;33.63;24.67;;;;;;;4.91;100.00;93461.47;5107208;28;20188;-71
2022/11/10 05:01:33;;;;;;;35.47;23.83;;;;;;;4.88;100.00;93452.38;5106437;28;20192;-69
2022/11/10 05:03:58;;;;;;;29.27;23.13;;;;;;;5.14;100.00;93458.13;5108622;28;20242;-71
2022/11/10 05:06:24;;;;;;;36.83;23.97;;;;;;;5.26;100.00;93482.97;5107145;28;20242;-71
2022/11/10 05:08:49;;;;;;;32.43;22.20;;;;;;;5.15;100.00;93476.03;5107210;28;20212;-72
2022/11/10 05:11:15;;;;;;;30.37;23.80;;;;;;;5.08;100.00;93480.50;5107238;28;20228;-69
2022/11/10 05:13:42;;;;;;;41.60;23.33;;;;;;;4.94;100.00;93453.25;5108194;28;20184;-70
2022/11/10 05:16:08;;;;;;;30.67;23.57;;;;;;;5.07;100.00;93485.91;5109006;28;20258;-70
2022/11/10 05:18:33;;;;;;;33.97;23.50;;;;;;;5.09;100.00;93484.66;5107666;28;20184;-69
2022/11/10 05:20:59;;;;;;;37.53;25.67;;;;;;;5.09;100.00;93489.06;5104938;28;20314;-69
2022/11/10 05:23:36;;;;;;;38.63;23.97;;;;;;;5.07;100.00;93485.91;5105731;28;20192;-68
2022/11/10 05:26:05;;;;;;;39.20;25.30;;;;;;;5.11;100.00;93492.19;5105960;28;20216;-72
2022/11/10 05:28:30;;;;;;;36.03;26.43;;;;;;;5.12;100.00;93488.63;5105051;28;20219;-71
2022/11/10 05:30:55;;;;;;;38.97;27.07;;;;;;;5.11;100.00;93487.03;5104639;28;20234;-70
2022/11/10 05:33:21;;;;;;;38.57;25.63;;;;;;;5.20;100.00;93480.53;5109355;28;20188;-72
2022/11/10 05:35:55;;;;;;;36.07;25.43;;;;;;;5.18;100.00;93472.19;5106370;28;20224;-72
2022/11/10 05:38:20;;;;;;;28.97;22.70;;;;;;;5.07;100.00;93466.00;5111841;28;20209;-70
2022/11/10 05:40:46;;;;;;;34.03;22.87;;;;;;;5.42;100.00;93495.25;5112072;28;20215;-72
2022/11/10 05:43:12;;;;;;;28.90;22.80;;;;;;;5.40;100.00;93481.75;5112313;28;20182;-72
2022/11/10 05:45:37;;;;;;;28.43;21.30;;;;;;;5.29;100.00;93474.00;5111203;28;20215;-72
2022/11/10 05:48:02;;;;;;;28.20;22.47;;;;;;;5.58;100.00;93498.97;5111372;28;20233;-72
2022/11/10 05:50:28;;;;;;;32.30;23.20;;;;;;;5.51;100.00;93501.69;5108377;28;20319;-70
2022/11/10 05:52:54;;;;;;;30.40;22.63;;;;;;;5.40;100.00;93491.34;5108947;28;20172;-72
2022/11/10 05:55:22;;;;;;;35.37;22.90;;;;;;;5.56;100.00;93512.16;5110230;28;20224;-72
2022/11/10 05:57:50;;;;;;;32.43;23.57;;;;;;;5.68;100.00;93512.16;5110089;28;20219;-68
2022/11/10 06:00:20;;;;;;;33.53;23.77;;;;;;;5.46;100.00;93469.72;5110780;28;20215;-68
2022/11/10 06:02:45;;;;;;;35.93;25.60;;;;;;;5.80;100.00;93518.13;5110105;28;20196;-68
2022/11/10 06:05:10;;;;;;;32.07;24.43;;;;;;;5.83;100.00;93515.09;5109702;28;20214;-69
2022/11/10 06:07:39;;;;;;;37.37;23.10;;;;;;;5.75;100.00;93495.47;5110001;28;20196;-69
2022/11/10 06:10:04;;;;;;;32.33;23.77;;;;;;;5.95;100.00;93511.47;5109518;28;20254;-72
2022/11/10 06:12:30;;;;;;;32.80;23.57;;;;;;;5.82;100.00;93500.56;5111384;28;20196;-71
2022/11/10 06:14:56;;;;;;;32.33;23.73;;;;;;;5.99;100.00;93522.19;5108785;28;20232;-72
2022/11/10 06:17:25;;;;;;;32.37;24.53;;;;;;;6.08;100.00;93531.19;5112120;28;20185;-69
2022/11/10 06:19:51;;;;;;;34.10;23.87;;;;;;;6.11;100.00;93528.94;5109761;28;20236;-69
2022/11/10 06:22:16;;;;;;;29.20;24.57;;;;;;;6.10;100.00;93524.72;5112459;28;20203;-70
2022/11/10 06:24:41;;;;;;;32.27;24.53;;;;;;;6.26;100.00;93523.22;5110391;28;20242;-74
2022/11/10 06:27:07;;;;;;;38.23;23.73;;;;;;;6.47;100.00;93543.38;5111541;28;20176;-69
2022/11/10 06:29:32;;;;;;;36.03;26.17;;;;;;;6.45;100.00;93545.41;5110564;28;20281;-70
2022/11/10 06:31:58;;;;;;;35.07;25.63;;;;;;;6.38;100.00;93558.50;5107466;28;20246;-71
2022/11/10 06:34:23;;;;;;;35.17;26.60;;;;;;;6.47;100.00;93566.72;5105770;28;20253;-72
2022/11/10 06:36:48;;;;;;;37.93;25.57;;;;;;;6.61;100.00;93552.47;5109118;28;20192;-72
2022/11/10 06:39:14;;;;;;;45.37;27.20;;;;;;;6.75;100.00;93558.97;5109941;28;20196;-71
2022/11/10 06:41:39;;;;;;;49.37;28.40;;;;;;;6.87;100.00;93562.28;5109057;28;20200;-71
2022/11/10 06:44:05;;;;;;;52.10;31.30;;;;;;;6.93;100.00;93573.53;5103867;28;20239;-70
2022/11/10 06:46:31;;;;;;;50.83;29.60;;;;;;;6.95;100.00;93561.13;5109406;28;20317;-72
2022/11/10 06:48:56;;;;;;;48.73;33.40;;;;;;;7.02;100.00;93570.31;5109991;28;20211;-72
2022/11/10 06:51:21;;;;;;;57.30;31.73;;;;;;;7.26;100.00;93566.59;5109381;28;20231;-71
2022/11/10 06:53:47;;;;;;;55.47;32.33;;;;;;;7.33;100.00;93562.03;5110775;28;20200;-71
2022/11/10 06:56:12;;;;;;;65.33;39.40;;;;;;;7.37;100.00;93577.94;5108792;28;20424;-67
2022/11/10 06:58:37;;;;;;;61.07;35.50;;;;;;;7.37;100.00;93577.94;5111418;28;20196;-67
2022/11/10 07:01:03;;;;;;;59.97;36.30;;;;;;;7.15;100.00;93584.84;5108125;28;20232;-67
2022/11/10 07:03:28;;;;;;;55.13;34.53;;;;;;;7.28;100.00;93574.97;5111533;28;20188;-69
2022/11/10 07:05:53;;;;;;;61.00;35.30;;;;;;;7.46;100.00;93582.53;5109171;28;20257;-70
2022/11/10 07:08:19;;;;;;;63.70;38.17;;;;;;;7.38;100.00;93575.13;5110738;28;20238;-69
2022/11/10 07:10:51;;;;;;;70.73;42.20;;;;;;;7.29;100.00;93571.31;5106875;28;20242;-71
2022/11/10 07:13:16;;;;;;;75.07;42.47;;;;;;;7.49;100.00;93576.84;5109610;28;20176;-71
2022/11/10 07:15:42;;;;;;;69.07;39.60;;;;;;;7.46;100.00;93582.53;5108927;28;20219;-69
2022/11/10 07:18:07;;;;;;;60.77;39.00;;;;;;;7.32;100.00;93570.06;5110199;28;20188;-71
2022/11/10 07:20:34;;;;;;;71.27;39.93;;;;;;;7.47;100.00;93581.50;5107887;28;20281;-72
2022/11/10 07:23:01;;;;;;;67.60;38.80;;;;;;;7.64;100.00;93582.28;5109878;28;20188;-71
2022/11/10 07:25:28;;;;;;;68.30;37.73;;;;;;;7.64;100.00;93587.47;5107110;28;20262;-71
2022/11/10 07:27:59;;;;;;;60.50;37.90;;;;;;;7.58;100.00;93587.66;5109408;28;20211;-72
2022/11/10 07:30:30;;;;;;;62.70;38.30;;;;;;;7.50;100.00;93565.44;5109247;28;20279;-72
2022/11/10 07:33:13;;;;;;;78.00;39.10;;;;;;;7.63;100.00;93588.50;5109786;28;20180;-73
2022/11/10 07:35:39;;;;;;;64.33;38.30;;;;;;;7.69;100.00;93577.16;5109793;28;20224;-71
2022/11/10 07:38:10;;;;;;;67.00;37.17;;;;;;;7.97;100.00;93595.25;5110046;28;20184;-70
2022/11/10 07:40:37;;;;;;;60.33;35.63;;;;;;;8.16;100.00;93594.00;5106959;28;20228;-71
2022/11/10 07:43:03;;;;;;;60.47;36.07;;;;;;;8.17;100.00;93594.78;5107515;28;20192;-70
2022/11/10 07:45:29;;;;;;;64.40;33.93;;;;;;;8.16;100.00;93595.78;5109349;28;20322;-71
2022/11/10 07:47:59;;;;;;;54.97;33.20;;;;;;;8.00;100.00;93584.38;5109299;28;20282;-72
2022/11/10 07:50:24;;;;;;;51.87;33.17;;;;;;;8.30;100.00;93596.25;5108846;28;20229;-72
2022/11/10 07:52:50;;;;;;;55.63;34.80;;;;;;;8.33;100.00;93577.59;5110159;28;20202;-71
2022/11/10 07:55:15;;;;;;;59.83;32.57;;;;;;;8.49;100.00;93592.34;5109441;28;20244;-70
2022/11/10 07:57:41;;;;;;;48.73;32.53;;;;;;;8.54;100.00;93587.22;5107636;28;20187;-71
2022/11/10 08:00:07;;;;;;;53.17;32.90;;;;;;;8.65;100.00;93597.53;5107381;28;20238;-70
2022/11/10 08:02:32;;;;;;;58.53;33.73;;;;;;;8.66;99.40;93590.47;5108153;28;20219;-70
2022/11/10 08:04:57;;;;;;;57.43;33.80;;;;;;;8.34;100.00;93563.53;5109066;28;20227;-72
2022/11/10 08:07:23;;;;;;;55.77;36.50;;;;;;;8.39;100.00;93603.41;5109318;28;20184;-71
2022/11/10 08:09:49;;;;;;;52.77;32.83;;;;;;;8.65;100.00;93591.53;5108629;28;20235;-72
2022/11/10 08:12:14;;;;;;;51.47;33.60;;;;;;;8.61;99.22;93580.81;5106979;28;20200;-71
2022/11/10 08:14:40;;;;;;;54.27;33.67;;;;;;;8.74;100.00;93596.06;5108308;28;20230;-70
2022/11/10 08:17:05;;;;;;;54.23;35.03;;;;;;;9.13;96.91;93594.94;5108657;28;20191;-71
2022/11/10 08:19:30;;;;;;;60.43;35.30;;;;;;;9.33;95.34;93594.34;5106361;28;20258;-70
2022/11/10 08:21:56;;;;;;;54.13;32.50;;;;;;;9.19;95.10;93593.16;5110550;28;20257;-71
2022/11/10 08:24:21;;;;;;;54.07;33.60;;;;;;;9.21;94.82;93586.66;5107816;28;20180;-70
2022/11/10 08:26:46;;;;;;;54.67;33.30;;;;;;;9.07;96.54;93595.13;5108604;28;20219;-71
2022/11/10 08:29:12;;;;;;;54.17;34.03;;;;;;;9.29;95.81;93593.28;5108245;28;20218;-72
2022/11/10 08:31:37;;;;;;;50.43;32.60;;;;;;;9.34;95.69;93601.13;5107861;28;20196;-72
2022/11/10 08:34:04;;;;;;;52.67;33.53;;;;;;;9.19;96.22;93608.78;5108020;28;20214;-72
2022/11/10 08:36:30;;;;;;;54.53;33.93;;;;;;;9.07;97.34;93611.56;5108089;28;20236;-71
2022/11/10 08:38:55;;;;;;;57.40;34.57;;;;;;;8.95;97.94;93584.84;5109201;28;20195;-72
2022/11/10 08:41:20;;;;;;;49.80;33.30;;;;;;;9.07;97.33;93610.75;5086173;28;20227;-72
2022/11/10 08:43:46;;;;;;;51.77;33.40;;;;;;;9.42;96.64;93614.50;5088592;28;20227;-72
2022/11/10 08:46:12;;;;;;;51.90;33.50;;;;;;;9.63;94.57;93595.38;5087540;28;20239;-72
2022/11/10 08:48:37;;;;;;;56.03;34.77;;;;;;;9.69;93.97;93601.44;5089033;28;20216;-71
2022/11/10 08:51:02;;;;;;;52.10;32.43;;;;;;;9.67;92.31;93600.91;5088981;28;20223;-72
2022/11/10 08:53:28;;;;;;;51.30;31.30;;;;;;;9.47;92.64;93608.53;5088801;28;20249;-73
2022/11/10 08:55:57;;;;;;;45.53;31.50;;;;;;;9.54;93.09;93622.19;5086238;28;20220;-72
2022/11/10 08:58:23;;;;;;;43.27;30.77;;;;;;;9.64;92.49;93610.00;5087919;28;20283;-72
2022/11/10 09:00:50;;;;;;;50.90;32.30;;;;;;;9.70;92.37;93616.84;5102723;28;20287;-71
2022/11/10 09:03:20;;;;;;;50.80;31.47;;;;;;;9.95;91.26;93618.84;5107971;28;20200;-73
2022/11/10 09:05:47;;;;;;;50.27;32.33;;;;;;;9.89;91.78;93619.84;5107773;28;20216;-71
2022/11/10 09:08:13;;;;;;;51.37;31.23;;;;;;;9.93;90.56;93602.66;5106809;28;20204;-71
2022/11/10 09:10:41;;;;;;;53.23;31.77;;;;;;;10.08;91.62;93625.50;5106587;28;20235;-71
2022/11/10 09:13:07;;;;;;;50.47;32.43;;;;;;;10.19;89.95;93622.72;5107013;28;20188;-72
2022/11/10 09:15:34;;;;;;;50.43;36.33;;;;;;;10.26;89.80;93623.28;5107013;28;20227;-72
2022/11/10 09:18:01;;;;;;;58.13;35.57;;;;;;;9.84;92.37;93622.41;5106332;28;20200;-71
2022/11/10 09:20:29;;;;;;;62.37;36.37;;;;;;;9.88;92.23;93613.09;5107803;28;20216;-71
2022/11/10 09:22:55;;;;;;;55.67;34.70;;;;;;;10.07;91.12;93619.50;5108158;28;20192;-72
2022/11/10 09:25:21;;;;;;;53.43;33.37;;;;;;;10.11;90.51;93620.59;5105624;28;20207;-72
2022/11/10 09:27:46;;;;;;;57.90;35.33;;;;;;;10.12;91.22;93619.53;5108903;28;20223;-70
2022/11/10 09:30:12;;;;;;;67.73;36.80;;;;;;;10.03;91.18;93588.91;5106260;28;20231;-71
2022/11/10 09:32:37;;;;;;;53.93;35.40;;;;;;;10.37;89.22;93605.84;5106555;28;20190;-72
2022/11/10 09:35:03;;;;;;;61.30;34.13;;;;;;;10.42;88.32;93592.84;5106147;28;20228;-71
2022/11/10 09:37:29;;;;;;;56.33;35.30;;;;;;;10.54;87.75;93607.28;5106571;28;20184;-72
2022/11/10 09:39:55;;;;;;;52.03;33.83;;;;;;;10.55;87.27;93595.78;5106957;28;20236;-73
2022/11/10 09:42:27;;;;;;;50.43;32.87;;;;;;;10.36;88.22;93605.09;5108089;28;20251;-71
2022/11/10 09:45:29;;;;;;;54.73;33.97;;;;;;;10.50;89.17;93611.44;5099022;28;20238;-72
2022/11/10 09:48:23;;;;;;;56.60;34.87;;;;;;;10.44;89.19;93609.03;5083876;28;20239;-73
2022/11/10 09:50:57;;;;;;;61.03;34.67;;;;;;;10.53;88.73;93584.81;5086882;28;20221;-73
2022/11/10 09:53:30;;;;;;;61.27;35.03;;;;;;;10.71;87.62;93602.66;5086037;28;20212;-71
2022/11/10 09:55:59;;;;;;;55.43;34.10;;;;;;;10.95;85.56;93603.00;5084688;28;20223;-71
2022/11/10 09:58:40;;;;;;;51.90;34.27;;;;;;;10.89;85.35;93583.13;5086803;28;20192;-73
2022/11/10 10:01:23;;;;;;;54.87;32.77;;;;;;;10.90;85.69;93606.41;5086832;28;20215;-72
2022/11/10 10:04:00;;;;;;;57.83;35.53;;;;;;;11.04;86.03;93607.50;5087133;28;20201;-71
2022/11/10 10:06:25;;;;;;;62.90;36.33;;;;;;;11.30;84.61;93608.34;5088105;28;20283;-71
2022/11/10 10:09:35;;;;;;;49.37;34.07;;;;;;;11.07;84.02;93603.56;5086679;28;20220;-71
2022/11/10 10:12:03;;;;;;;54.20;35.20;;;;;;;11.01;85.04;93601.97;5074015;28;20861;-71
2022/11/10 10:14:32;;;;;;;53.73;34.27;;;;;;;10.84;86.00;93606.63;5086442;28;20250;-71
2022/11/10 10:17:40;;;;;;;51.83;33.50;;;;;;;11.19;84.22;93604.91;5097713;28;20184;-71
2022/11/10 10:20:18;;;;;;;54.37;33.47;;;;;;;10.97;85.21;93606.94;5078302;28;20312;-70
2022/11/10 10:23:03;;;;;;;56.13;33.87;;;;;;;10.97;85.73;93612.16;5096627;28;20188;-71
2022/11/10 10:25:30;;;;;;;50.83;33.47;;;;;;;10.91;85.11;93588.91;5098754;28;20242;-72
2022/11/10 10:28:11;;;;;;;58.13;34.80;;;;;;;11.04;85.37;93581.34;5098617;28;20189;-71
2022/11/10 10:30:37;;;;;;;54.27;35.67;;;;;;;11.35;84.97;93598.69;5093325;28;20287;-71
2022/11/10 10:33:13;;;;;;;56.80;34.10;;;;;;;11.59;82.85;93593.75;5091391;28;20189;-70
2022/11/10 10:35:40;;;;;;;59.80;36.43;;;;;;;11.45;83.76;93573.59;5091425;28;20228;-71
2022/11/10 10:38:32;;;;;;;57.47;37.17;;;;;;;11.59;83.84;93606.03;5090439;28;20193;-69
2022/11/10 10:41:24;;;;;;;58.67;36.87;;;;;;;11.66;84.04;93601.38;5088374;28;20217;-70
2022/11/10 10:43:53;;;;;;;56.40;36.23;;;;;;;11.56;84.92;93602.13;5090441;28;20197;-68
2022/11/10 10:46:23;;;;;;;58.27;34.53;;;;;;;11.70;84.37;93589.34;5090608;28;20222;-67
2022/11/10 10:49:17;;;;;;;50.70;32.33;;;;;;;11.59;83.88;93590.34;5091185;28;20242;-69
2022/11/10 10:51:44;;;;;;;52.73;33.77;;;;;;;11.37;86.24;93598.44;5090579;28;20209;-69
2022/11/10 10:54:28;;;;;;;50.27;33.63;;;;;;;11.41;84.84;93590.84;5089718;28;20265;-69
2022/11/10 10:57:01;;;;;;;49.73;32.73;;;;;;;11.34;84.83;93591.09;5100420;28;20213;-69
2022/11/10 10:59:27;;;;;;;57.50;37.23;;;;;;;11.38;86.69;93586.16;5096992;28;20229;-67
2022/11/10 11:01:53;;;;;;;49.77;34.23;;;;;;;11.43;84.87;93580.91;5090715;28;20218;-70
2022/11/10 11:04:31;;;;;;;48.17;32.90;;;;;;;11.42;84.91;93574.91;5092149;28;20189;-69
2022/11/10 11:07:05;;;;;;;52.77;32.33;;;;;;;11.85;83.04;93579.66;5110930;28;20184;-69
2022/11/10 11:09:43;;;;;;;56.93;33.27;;;;;;;11.74;83.47;93580.72;5108683;28;20236;-69
2022/11/10 11:12:24;;;;;;;54.07;35.00;;;;;;;11.43;84.70;93570.44;5109070;28;20194;-69
2022/11/10 11:14:49;;;;;;;46.73;32.90;;;;;;;11.72;84.18;93566.34;5108938;28;20240;-66
2022/11/10 11:17:21;;;;;;;56.30;32.63;;;;;;;11.94;82.65;93566.84;5109442;28;20186;-67
2022/11/10 11:19:50;;;;;;;56.57;32.80;;;;;;;11.72;85.50;93566.34;5108298;28;20235;-68
2022/11/10 11:22:34;;;;;;;56.30;33.30;;;;;;;11.79;83.32;93565.03;5109118;28;20215;-67
2022/11/10 11:25:30;;;;;;;53.53;33.07;;;;;;;11.81;84.00;93564.75;5106873;28;20221;-68
2022/11/10 11:28:33;;;;;;;58.90;33.07;;;;;;;11.66;84.57;93565.53;5107897;28;20219;-68
2022/11/10 11:31:20;;;;;;;55.53;31.57;;;;;;;11.67;84.25;93554.03;5109421;28;20228;-67
2022/11/10 11:33:55;;;;;;;68.27;33.50;;;;;;;11.72;84.73;93546.16;5108890;28;20227;-67
2022/11/10 11:36:23;;;;;;;55.10;32.87;;;;;;;11.82;84.93;93561.88;5108433;28;20221;-70
2022/11/10 11:39:13;;;;;;;55.10;33.83;;;;;;;11.88;83.41;93560.81;5109659;28;20196;-68